Time;durP1;ratioP1;P1;durP2;ratioP2;P2;SDS_P1;SDS_P2;PMS_P1;PMS_P2;Temp;Humidity;BMP_temperature;BMP_pressure;BME280_temperature;BME280_humidity;BME280_pressure;Samples;Min_cycle;Max_cycle;Signal;HPM_P1;HPM_P2
2023/07/07 00:01:51;;;;;;;2.95;0.80;;;14.10;99.90;;;;;;5076375;28;20032;-69
2023/07/07 00:04:17;;;;;;;5.18;0.80;;;14.10;99.90;;;;;;5066671;28;20056;-69
2023/07/07 00:06:43;;;;;;;4.82;1.05;;;14.10;99.90;;;;;;5068895;28;20123;-69
2023/07/07 00:09:08;;;;;;;1.55;0.77;;;14.10;99.90;;;;;;5077828;28;20081;-69
2023/07/07 00:11:34;;;;;;;2.03;0.80;;;14.00;99.90;;;;;;5067928;28;20037;-69
2023/07/07 00:14:00;;;;;;;3.65;0.80;;;14.00;99.90;;;;;;5067990;28;20028;-69
2023/07/07 00:16:27;;;;;;;2.20;1.13;;;14.00;99.90;;;;;;5068583;28;20036;-69
2023/07/07 00:19:00;;;;;;;2.17;1.13;;;13.90;99.90;;;;;;5077475;28;20525;-69
2023/07/07 00:21:25;;;;;;;2.47;0.82;;;13.90;99.90;;;;;;5066272;28;20055;-69
2023/07/07 00:23:53;;;;;;;3.60;1.30;;;13.90;99.90;;;;;;5070199;28;20036;-69
2023/07/07 00:26:20;;;;;;;1.00;0.70;;;13.90;99.90;;;;;;5065019;28;20506;-69
2023/07/07 00:28:47;;;;;;;2.20;1.17;;;13.90;99.90;;;;;;5069378;28;20040;-69
2023/07/07 00:31:12;;;;;;;1.67;0.90;;;13.90;99.90;;;;;;5069786;28;20371;-69
2023/07/07 00:33:38;;;;;;;2.03;1.00;;;13.90;99.90;;;;;;5071071;28;20048;-69
2023/07/07 00:36:04;;;;;;;1.98;0.70;;;13.90;99.90;;;;;;5066412;28;20166;-69
2023/07/07 00:38:30;;;;;;;1.83;0.88;;;13.90;99.90;;;;;;5073940;28;20044;-69
2023/07/07 00:40:59;;;;;;;2.63;1.02;;;13.80;99.90;;;;;;5074000;28;20032;-69
2023/07/07 00:43:26;;;;;;;2.25;1.02;;;13.80;99.90;;;;;;5070963;28;20049;-69
2023/07/07 00:45:51;;;;;;;2.75;1.40;;;13.80;99.90;;;;;;5066250;28;20174;-69
2023/07/07 00:48:24;;;;;;;1.98;1.10;;;13.80;99.90;;;;;;5069523;28;20126;-69
2023/07/07 00:50:59;;;;;;;1.48;0.90;;;13.70;99.90;;;;;;5069971;28;20036;-69
2023/07/07 00:53:25;;;;;;;2.40;0.90;;;13.70;99.90;;;;;;5073458;28;20036;-69
2023/07/07 00:55:58;;;;;;;1.70;0.80;;;13.70;99.90;;;;;;5069469;28;20044;-69
2023/07/07 00:58:25;;;;;;;2.10;1.10;;;13.70;99.90;;;;;;5072119;28;20513;-69
2023/07/07 01:00:57;;;;;;;2.38;1.10;;;13.60;99.90;;;;;;5071314;28;20111;-69
2023/07/07 01:03:31;;;;;;;3.75;1.17;;;13.60;99.90;;;;;;5071654;28;20202;-69
2023/07/07 01:06:00;;;;;;;1.67;0.90;;;13.60;99.90;;;;;;5075797;28;20123;-69
2023/07/07 01:08:25;;;;;;;3.25;1.05;;;13.50;99.90;;;;;;5072202;28;20044;-69
2023/07/07 01:10:51;;;;;;;1.98;1.00;;;13.50;99.90;;;;;;5074717;28;20105;-69
2023/07/07 01:13:17;;;;;;;4.10;0.98;;;13.50;99.90;;;;;;5070177;28;20059;-69
2023/07/07 01:16:06;;;;;;;2.00;1.05;;;13.50;99.90;;;;;;5069973;28;20226;-69
2023/07/07 01:18:45;;;;;;;2.15;1.02;;;13.50;99.90;;;;;;5071189;28;20040;-69
2023/07/07 01:21:32;;;;;;;2.35;1.00;;;13.50;99.90;;;;;;5055541;28;20102;-69
2023/07/07 01:24:10;;;;;;;2.03;1.00;;;13.50;99.90;;;;;;5077525;28;20040;-69
2023/07/07 01:26:51;;;;;;;5.10;1.30;;;13.50;99.90;;;;;;5074008;28;20048;-69
2023/07/07 01:29:44;;;;;;;2.13;0.80;;;13.50;99.90;;;;;;5068144;28;20094;-69
2023/07/07 01:32:16;;;;;;;2.40;1.20;;;13.40;99.90;;;;;;5078647;28;20071;-69
2023/07/07 01:34:41;;;;;;;4.05;1.40;;;13.40;99.90;;;;;;5070117;28;20036;-69
2023/07/07 01:37:07;;;;;;;5.70;1.45;;;13.40;99.90;;;;;;5063194;28;20122;-69
2023/07/07 01:39:33;;;;;;;4.35;1.20;;;13.40;99.90;;;;;;5072756;28;20105;-69
2023/07/07 01:42:08;;;;;;;2.75;1.50;;;13.40;99.90;;;;;;5071010;28;20040;-69
2023/07/07 01:44:44;;;;;;;4.25;1.52;;;13.40;99.90;;;;;;5066834;28;20095;-69
2023/07/07 01:47:15;;;;;;;3.20;1.50;;;13.40;99.90;;;;;;5072435;28;20036;-69
2023/07/07 01:49:56;;;;;;;2.90;1.33;;;13.40;99.90;;;;;;5068777;28;20050;-69
2023/07/07 01:52:35;;;;;;;3.72;1.30;;;13.50;99.90;;;;;;5070149;28;20075;-69
2023/07/07 01:55:11;;;;;;;4.10;1.90;;;13.40;99.90;;;;;;5069460;28;20097;-69
2023/07/07 01:57:40;;;;;;;4.38;2.10;;;13.40;99.90;;;;;;5073244;28;20051;-69
2023/07/07 02:00:07;;;;;;;3.50;1.90;;;13.40;99.90;;;;;;5076661;28;20031;-69
2023/07/07 02:02:32;;;;;;;3.33;1.50;;;13.40;99.90;;;;;;5070665;28;20308;-69
2023/07/07 02:04:58;;;;;;;5.30;2.08;;;13.40;99.90;;;;;;5067152;28;20025;-69
2023/07/07 02:07:24;;;;;;;4.18;1.60;;;13.40;99.90;;;;;;5070612;28;20036;-69
2023/07/07 02:09:49;;;;;;;5.00;1.98;;;13.40;99.90;;;;;;5075145;28;20127;-69
2023/07/07 02:12:15;;;;;;;3.97;1.92;;;13.30;99.90;;;;;;5070790;28;20040;-69
2023/07/07 02:14:40;;;;;;;4.07;1.83;;;13.30;99.90;;;;;;5071969;28;20032;-69
2023/07/07 02:17:06;;;;;;;5.28;2.25;;;13.30;99.90;;;;;;5074655;28;20036;-69
2023/07/07 02:19:32;;;;;;;4.57;2.30;;;13.30;99.90;;;;;;5062886;28;20052;-69
2023/07/07 02:21:57;;;;;;;6.55;2.30;;;13.20;99.90;;;;;;5073137;28;20036;-69
2023/07/07 02:24:23;;;;;;;4.35;2.40;;;13.30;99.90;;;;;;5059263;28;20081;-69
2023/07/07 02:26:50;;;;;;;6.07;2.53;;;13.30;99.90;;;;;;5072892;28;20051;-69
2023/07/07 02:29:16;;;;;;;5.22;2.95;;;13.30;99.90;;;;;;5067669;28;20067;-69
2023/07/07 02:31:42;;;;;;;7.45;2.83;;;13.30;99.90;;;;;;5066366;28;20041;-69
2023/07/07 02:34:07;;;;;;;6.72;3.03;;;13.30;99.90;;;;;;5068949;28;20052;-69
2023/07/07 02:36:36;;;;;;;5.40;3.05;;;13.30;99.90;;;;;;5068600;28;20173;-69
2023/07/07 02:39:02;;;;;;;7.18;3.05;;;13.30;99.90;;;;;;5073000;28;20036;-69
2023/07/07 02:41:28;;;;;;;8.43;3.00;;;13.30;99.90;;;;;;5070308;28;20063;-69
2023/07/07 02:43:53;;;;;;;9.77;4.07;;;13.40;99.90;;;;;;5070161;28;20078;-69
2023/07/07 02:46:19;;;;;;;6.65;3.40;;;13.40;99.90;;;;;;5063445;28;20041;-69
2023/07/07 02:48:44;;;;;;;7.30;4.10;;;13.40;99.90;;;;;;5078961;28;20497;-69
2023/07/07 02:51:10;;;;;;;6.47;3.45;;;13.40;99.90;;;;;;5067667;28;20748;-69
2023/07/07 02:53:36;;;;;;;8.15;3.97;;;13.40;99.90;;;;;;5069596;28;20076;-69
2023/07/07 02:56:03;;;;;;;8.77;3.50;;;13.40;99.90;;;;;;5069193;28;20028;-69
2023/07/07 02:58:29;;;;;;;7.88;3.70;;;13.40;99.90;;;;;;5070254;28;20035;-69
2023/07/07 03:01:09;;;;;;;7.72;3.75;;;13.40;99.90;;;;;;5067208;28;20489;-69
2023/07/07 03:03:39;;;;;;;8.07;3.45;;;13.40;99.90;;;;;;5066785;28;20044;-69
2023/07/07 03:06:15;;;;;;;10.13;4.22;;;13.40;99.90;;;;;;5065899;28;20040;-69
2023/07/07 03:08:41;;;;;;;7.32;4.03;;;13.50;99.90;;;;;;5067663;28;20036;-69
2023/07/07 03:11:09;;;;;;;7.95;3.92;;;13.50;99.90;;;;;;5071427;28;20406;-69
2023/07/07 03:13:35;;;;;;;10.93;4.63;;;13.50;99.90;;;;;;5068193;28;20102;-69
2023/07/07 03:16:08;;;;;;;7.47;4.13;;;13.50;99.90;;;;;;5068589;28;20482;-69
2023/07/07 03:18:34;;;;;;;11.18;3.33;;;13.40;99.90;;;;;;5069275;28;20044;-69
2023/07/07 03:20:59;;;;;;;9.80;4.00;;;13.40;99.90;;;;;;5067084;28;20032;-69
2023/07/07 03:23:25;;;;;;;7.22;3.92;;;13.40;99.90;;;;;;5068493;28;20495;-69
2023/07/07 03:25:50;;;;;;;8.98;4.00;;;13.40;99.90;;;;;;5073281;28;20062;-69
2023/07/07 03:28:16;;;;;;;10.40;4.95;;;13.50;99.90;;;;;;5069462;28;20032;-69
2023/07/07 03:30:42;;;;;;;6.97;4.13;;;13.50;99.90;;;;;;5068621;28;20035;-69
2023/07/07 03:33:07;;;;;;;8.77;4.32;;;13.50;99.90;;;;;;5069039;28;20564;-69
2023/07/07 03:35:33;;;;;;;9.10;5.00;;;13.50;99.90;;;;;;5066175;28;20067;-69
2023/07/07 03:37:58;;;;;;;10.20;4.57;;;13.50;99.90;;;;;;5066326;28;20034;-69
2023/07/07 03:40:24;;;;;;;9.27;4.75;;;13.50;99.90;;;;;;5069827;28;20402;-69
2023/07/07 03:42:49;;;;;;;12.02;4.53;;;13.50;99.90;;;;;;5071009;28;20051;-69
2023/07/07 03:45:16;;;;;;;9.63;4.88;;;13.50;99.90;;;;;;5069730;28;20029;-69
2023/07/07 03:47:46;;;;;;;12.30;4.80;;;13.50;99.90;;;;;;5070524;28;20045;-69
2023/07/07 03:50:11;;;;;;;10.05;4.35;;;13.60;99.90;;;;;;5061098;28;20599;-69
2023/07/07 03:52:37;;;;;;;9.18;4.13;;;13.50;99.90;;;;;;5063092;28;20039;-69
2023/07/07 03:55:04;;;;;;;11.82;4.32;;;13.50;99.90;;;;;;5057936;28;20592;-69
2023/07/07 03:57:30;;;;;;;8.20;4.28;;;13.50;99.90;;;;;;5067385;28;20039;-69
2023/07/07 03:59:55;;;;;;;12.88;4.45;;;13.60;99.90;;;;;;5067652;28;20044;-69
2023/07/07 04:02:21;;;;;;;9.20;4.03;;;13.50;99.90;;;;;;5064247;28;20093;-69
2023/07/07 04:04:47;;;;;;;12.05;5.03;;;13.60;99.90;;;;;;5069450;28;20037;-69
2023/07/07 04:07:12;;;;;;;10.45;4.90;;;13.60;99.90;;;;;;5074316;28;20316;-69
2023/07/07 04:09:38;;;;;;;9.10;4.40;;;13.60;99.90;;;;;;5075942;28;20062;-69
2023/07/07 04:12:08;;;;;;;10.98;4.93;;;13.60;99.90;;;;;;5071171;28;20041;-69
2023/07/07 04:14:34;;;;;;;8.07;4.47;;;13.60;99.90;;;;;;5051251;28;20048;-69
2023/07/07 04:16:59;;;;;;;9.00;4.72;;;13.60;99.90;;;;;;5070179;28;20494;-69
2023/07/07 04:19:25;;;;;;;10.43;4.60;;;13.70;99.90;;;;;;5071634;28;20041;-69
2023/07/07 04:21:50;;;;;;;10.38;4.90;;;13.70;99.90;;;;;;5077189;28;20075;-69
2023/07/07 04:24:19;;;;;;;12.02;4.45;;;13.70;99.90;;;;;;5078140;28;20040;-69
2023/07/07 04:26:45;;;;;;;11.30;4.88;;;13.70;99.90;;;;;;5073641;28;20049;-69
2023/07/07 04:29:11;;;;;;;9.75;4.80;;;13.70;99.90;;;;;;5071347;28;20452;-69
2023/07/07 04:31:38;;;;;;;11.63;4.65;;;13.80;99.90;;;;;;5072012;28;20520;-69
2023/07/07 04:34:03;;;;;;;11.18;4.82;;;13.80;99.90;;;;;;5070135;28;20040;-69
2023/07/07 04:36:29;;;;;;;11.75;5.05;;;13.80;99.90;;;;;;5061281;28;20056;-69
2023/07/07 04:38:54;;;;;;;12.60;5.20;;;13.80;99.90;;;;;;5053743;28;20044;-69
2023/07/07 04:41:25;;;;;;;9.70;5.15;;;13.90;99.90;;;;;;5071364;28;20036;-69
2023/07/07 04:43:56;;;;;;;9.05;5.00;;;13.90;99.90;;;;;;5072646;28;20059;-69
2023/07/07 04:46:37;;;;;;;9.07;4.57;;;14.00;99.90;;;;;;5074575;28;20040;-69
2023/07/07 04:49:06;;;;;;;9.25;4.80;;;14.00;99.90;;;;;;5070563;28;20421;-69
2023/07/07 04:51:42;;;;;;;11.40;6.28;;;14.00;99.90;;;;;;5069766;28;20063;-69
2023/07/07 04:54:11;;;;;;;9.63;5.35;;;14.10;99.90;;;;;;5071163;28;20043;-69
2023/07/07 04:56:37;;;;;;;14.02;5.18;;;14.10;99.90;;;;;;5070618;28;20396;-69
2023/07/07 04:59:03;;;;;;;11.32;5.05;;;14.10;99.90;;;;;;5075838;28;20718;-69
2023/07/07 05:01:29;;;;;;;9.55;5.70;;;14.10;99.90;;;;;;5066900;28;20257;-69
2023/07/07 05:04:01;;;;;;;11.63;5.15;;;14.20;99.90;;;;;;5068939;28;20068;-70
2023/07/07 05:06:31;;;;;;;10.45;4.95;;;14.20;99.90;;;;;;5069243;28;20424;-69
2023/07/07 05:08:57;;;;;;;11.38;5.30;;;14.20;99.90;;;;;;5070842;28;20049;-69
2023/07/07 05:11:27;;;;;;;10.48;5.20;;;14.20;99.90;;;;;;5071686;28;20092;-69
2023/07/07 05:13:53;;;;;;;11.32;5.20;;;14.30;99.90;;;;;;5073668;28;20313;-69
2023/07/07 05:16:22;;;;;;;12.38;5.43;;;14.30;99.90;;;;;;5065340;28;20346;-69
2023/07/07 05:18:48;;;;;;;15.10;5.30;;;14.30;99.90;;;;;;5072049;28;20487;-69
2023/07/07 05:21:16;;;;;;;8.75;4.93;;;14.30;99.90;;;;;;5062276;28;20123;-69
2023/07/07 05:23:42;;;;;;;9.07;4.90;;;14.40;99.90;;;;;;5069824;28;20033;-69
2023/07/07 05:26:08;;;;;;;8.45;4.95;;;14.40;99.90;;;;;;5075043;28;20090;-69
2023/07/07 05:28:34;;;;;;;8.60;4.45;;;14.40;99.90;;;;;;5066980;28;20091;-69
2023/07/07 05:31:00;;;;;;;9.23;4.32;;;14.40;99.90;;;;;;5066400;28;20068;-69
2023/07/07 05:33:27;;;;;;;10.73;4.47;;;14.50;99.90;;;;;;5067740;28;20048;-69
2023/07/07 05:35:56;;;;;;;8.88;4.43;;;14.50;99.90;;;;;;5070255;28;20378;-69
2023/07/07 05:38:24;;;;;;;12.20;4.22;;;14.50;99.90;;;;;;5070063;28;20032;-70
2023/07/07 05:40:50;;;;;;;9.30;4.43;;;14.50;99.90;;;;;;5069972;28;20040;-69
2023/07/07 05:43:18;;;;;;;10.73;4.75;;;14.60;99.90;;;;;;5081279;28;20050;-69
2023/07/07 05:45:43;;;;;;;14.50;4.28;;;14.60;99.90;;;;;;5078213;28;20396;-69
2023/07/07 05:48:11;;;;;;;7.78;4.38;;;14.70;99.90;;;;;;5077917;28;20127;-69
2023/07/07 05:50:38;;;;;;;9.20;4.22;;;14.70;99.90;;;;;;5071260;28;20051;-69
2023/07/07 05:53:04;;;;;;;9.27;4.88;;;14.70;99.90;;;;;;5072518;28;20044;-70
2023/07/07 05:55:33;;;;;;;9.85;4.50;;;14.80;99.90;;;;;;5078364;28;20097;-69
2023/07/07 05:58:03;;;;;;;12.23;4.65;;;14.80;99.90;;;;;;5073162;28;20051;-70
2023/07/07 06:00:30;;;;;;;9.98;4.85;;;14.80;99.90;;;;;;5073407;28;20036;-70
2023/07/07 06:02:57;;;;;;;9.90;4.43;;;14.90;99.90;;;;;;5075158;28;20028;-70
2023/07/07 06:05:23;;;;;;;10.18;4.85;;;14.90;99.90;;;;;;5070603;28;20037;-70
2023/07/07 06:07:51;;;;;;;8.20;4.47;;;15.00;99.90;;;;;;5079899;28;20518;-70
2023/07/07 06:10:17;;;;;;;8.90;4.25;;;15.00;99.90;;;;;;5073648;28;20072;-70
2023/07/07 06:12:42;;;;;;;8.98;4.32;;;15.00;99.90;;;;;;5077918;28;20512;-70
2023/07/07 06:15:08;;;;;;;8.27;4.05;;;15.00;99.90;;;;;;5071554;28;20115;-70
2023/07/07 06:17:34;;;;;;;9.45;3.97;;;15.10;99.90;;;;;;5080677;28;20043;-69
2023/07/07 06:20:00;;;;;;;10.35;4.53;;;15.20;99.90;;;;;;5075229;28;20393;-70
2023/07/07 06:22:26;;;;;;;9.75;4.32;;;15.20;99.90;;;;;;5074729;28;20735;-70
2023/07/07 06:24:52;;;;;;;9.73;3.80;;;15.50;99.90;;;;;;5078955;28;20040;-70
2023/07/07 06:27:19;;;;;;;8.10;3.90;;;15.70;99.90;;;;;;5072576;28;20052;-70
2023/07/07 06:29:44;;;;;;;7.82;3.38;;;15.80;99.90;;;;;;5071606;28;20063;-68
2023/07/07 06:32:10;;;;;;;7.20;4.07;;;15.70;99.90;;;;;;5072989;28;20067;-69
2023/07/07 06:34:36;;;;;;;7.22;3.67;;;15.80;99.90;;;;;;5066624;28;20040;-69
2023/07/07 06:37:01;;;;;;;8.63;3.90;;;16.20;99.90;;;;;;5069593;28;20160;-69
2023/07/07 06:39:27;;;;;;;8.60;4.22;;;17.30;99.90;;;;;;5069397;28;20044;-70
2023/07/07 06:41:58;;;;;;;7.13;3.90;;;18.70;99.90;;;;;;5060738;28;20506;-70
2023/07/07 06:44:23;;;;;;;6.43;3.28;;;20.10;99.90;;;;;;5067924;28;20033;-70
2023/07/07 06:46:49;;;;;;;7.93;3.45;;;21.30;99.90;;;;;;5079987;28;20063;-70
2023/07/07 06:49:14;;;;;;;6.80;3.40;;;22.20;99.90;;;;;;5076075;28;20484;-70
2023/07/07 06:51:40;;;;;;;6.20;2.95;;;23.10;99.50;;;;;;5072346;28;20044;-70
2023/07/07 06:54:06;;;;;;;4.15;2.58;;;23.80;98.60;;;;;;5060339;28;20406;-70
2023/07/07 06:56:31;;;;;;;5.75;2.50;;;24.40;97.40;;;;;;5079249;28;20044;-70
2023/07/07 06:58:57;;;;;;;5.20;2.47;;;24.10;97.30;;;;;;5073141;28;20171;-70
2023/07/07 07:01:22;;;;;;;6.32;3.00;;;23.60;98.10;;;;;;5070495;28;20112;-70
2023/07/07 07:03:48;;;;;;;8.23;3.47;;;22.90;98.90;;;;;;5074715;28;20547;-74
2023/07/07 07:06:14;;;;;;;6.05;2.65;;;22.30;99.70;;;;;;5078569;28;20497;-70
2023/07/07 07:08:40;;;;;;;5.82;2.47;;;21.80;99.90;;;;;;5070816;28;20060;-70
2023/07/07 07:11:08;;;;;;;5.70;2.50;;;21.30;99.90;;;;;;5072190;28;20070;-71
2023/07/07 07:13:34;;;;;;;5.25;1.85;;;20.90;99.90;;;;;;5073325;28;20036;-71
2023/07/07 07:15:59;;;;;;;4.13;1.98;;;20.60;99.90;;;;;;5072799;28;20070;-72
2023/07/07 07:18:25;;;;;;;3.42;1.83;;;20.30;99.90;;;;;;5064362;28;20115;-71
2023/07/07 07:20:54;;;;;;;3.00;1.80;;;20.10;99.90;;;;;;5065348;28;20082;-71
2023/07/07 07:23:20;;;;;;;3.55;1.77;;;19.90;99.90;;;;;;5077457;28;20472;-71
2023/07/07 07:25:46;;;;;;;4.07;1.83;;;19.80;99.90;;;;;;5075362;28;20493;-71
2023/07/07 07:28:13;;;;;;;4.65;1.90;;;19.60;99.90;;;;;;5068487;28;20071;-71
2023/07/07 07:30:39;;;;;;;3.90;2.25;;;19.50;99.90;;;;;;5070171;28;20485;-71
2023/07/07 07:33:10;;;;;;;3.45;1.65;;;19.40;99.90;;;;;;5081400;28;20040;-71
2023/07/07 07:35:35;;;;;;;3.85;1.90;;;19.30;99.90;;;;;;5086236;28;20043;-71
2023/07/07 07:38:01;;;;;;;4.05;1.58;;;19.30;99.90;;;;;;5076522;28;20041;-70
2023/07/07 07:40:27;;;;;;;4.25;1.58;;;19.20;99.90;;;;;;5076786;28;20133;-71
2023/07/07 07:42:53;;;;;;;2.92;1.70;;;19.10;99.90;;;;;;5078703;28;20379;-72
2023/07/07 07:45:20;;;;;;;2.97;1.50;;;19.10;99.90;;;;;;5081996;28;20031;-72
2023/07/07 07:47:47;;;;;;;6.88;1.60;;;19.10;99.90;;;;;;5083436;28;20111;-72
2023/07/07 07:50:14;;;;;;;3.25;1.52;;;19.00;99.90;;;;;;5074613;28;20098;-71
2023/07/07 07:52:40;;;;;;;4.25;1.40;;;19.10;99.90;;;;;;5077507;28;20052;-71
2023/07/07 07:55:06;;;;;;;4.07;1.83;;;19.10;99.90;;;;;;5075876;28;20049;-71
2023/07/07 07:57:31;;;;;;;2.97;1.50;;;19.00;99.90;;;;;;5065766;28;20037;-71
2023/07/07 07:59:57;;;;;;;3.03;1.58;;;19.00;99.90;;;;;;5082145;28;20048;-71
2023/07/07 08:02:23;;;;;;;3.80;1.70;;;19.00;99.90;;;;;;5072632;28;20521;-71
2023/07/07 08:04:49;;;;;;;4.40;1.52;;;19.00;99.90;;;;;;5071250;28;20620;-71
2023/07/07 08:07:14;;;;;;;4.25;1.50;;;19.00;99.90;;;;;;5071417;28;20475;-71
2023/07/07 08:09:40;;;;;;;5.93;1.48;;;19.00;99.90;;;;;;5071095;28;20090;-71
2023/07/07 08:12:08;;;;;;;4.47;1.45;;;19.00;99.90;;;;;;5072267;28;20049;-71
2023/07/07 08:14:33;;;;;;;4.18;1.85;;;19.10;99.90;;;;;;5065469;28;20109;-71
2023/07/07 08:17:13;;;;;;;4.32;1.73;;;19.00;99.90;;;;;;5087625;28;20125;-71
2023/07/07 08:19:41;;;;;;;5.00;1.92;;;19.10;99.90;;;;;;5072176;28;20043;-71
2023/07/07 08:22:19;;;;;;;5.55;1.48;;;19.20;99.90;;;;;;5071955;28;20051;-71
2023/07/07 08:24:51;;;;;;;2.60;1.42;;;19.20;99.90;;;;;;5071728;28;20040;-71
2023/07/07 08:27:18;;;;;;;4.13;1.92;;;19.20;99.90;;;;;;5070747;28;20052;-71
2023/07/07 08:29:43;;;;;;;5.10;1.85;;;19.30;99.90;;;;;;5071058;28;20033;-71
2023/07/07 08:32:12;;;;;;;3.78;1.60;;;19.30;99.90;;;;;;5087288;28;20186;-71
2023/07/07 08:34:38;;;;;;;2.47;1.50;;;19.40;99.90;;;;;;5070251;28;20052;-71
2023/07/07 08:37:04;;;;;;;4.72;1.52;;;19.40;99.90;;;;;;5070744;28;20046;-71
2023/07/07 08:39:30;;;;;;;4.82;1.20;;;19.40;99.90;;;;;;5071228;28;20328;-71
2023/07/07 08:42:03;;;;;;;3.00;1.40;;;19.40;99.90;;;;;;5053064;28;20136;-71
2023/07/07 08:44:34;;;;;;;2.38;1.30;;;19.40;99.80;;;;;;5070570;28;20135;-71
2023/07/07 08:47:29;;;;;;;3.42;1.30;;;19.40;99.80;;;;;;5066747;28;20059;-71
2023/07/07 08:50:06;;;;;;;6.57;1.15;;;19.40;99.70;;;;;;5067303;28;20440;-71
2023/07/07 08:52:49;;;;;;;2.42;1.00;;;19.50;99.70;;;;;;5070316;28;20406;-71
2023/07/07 08:55:33;;;;;;;2.72;1.20;;;19.50;99.50;;;;;;5068991;28;20106;-71
2023/07/07 08:58:31;;;;;;;2.63;1.40;;;19.60;99.20;;;;;;5082549;28;20079;-71
2023/07/07 09:01:12;;;;;;;2.15;1.15;;;19.60;98.70;;;;;;5077822;28;20130;-71
2023/07/07 09:03:53;;;;;;;2.90;1.33;;;19.60;99.10;;;;;;5086139;28;20039;-72
2023/07/07 09:06:28;;;;;;;1.98;0.80;;;19.70;99.00;;;;;;5050324;28;20076;-72
2023/07/07 09:09:17;;;;;;;1.83;0.70;;;19.70;98.60;;;;;;5076626;28;20083;-72
2023/07/07 09:12:10;;;;;;;4.65;1.30;;;19.80;98.00;;;;;;5085896;28;20036;-71
2023/07/07 09:14:38;;;;;;;3.78;1.08;;;19.80;97.50;;;;;;5084871;28;20061;-71
2023/07/07 09:17:12;;;;;;;4.07;1.23;;;19.80;98.20;;;;;;5088864;28;20089;-72
2023/07/07 09:19:42;;;;;;;2.88;1.20;;;19.90;98.20;;;;;;5070261;28;20536;-71
2023/07/07 09:22:26;;;;;;;3.97;0.90;;;19.90;97.90;;;;;;5066626;28;20040;-72
2023/07/07 09:25:12;;;;;;;3.80;0.95;;;19.90;97.30;;;;;;5062113;28;20489;-71
2023/07/07 09:27:43;;;;;;;4.20;1.50;;;19.90;97.60;;;;;;5077427;28;20048;-72
2023/07/07 09:30:47;;;;;;;2.30;1.10;;;19.90;97.70;;;;;;5050136;28;20040;-72
2023/07/07 09:33:19;;;;;;;3.97;1.20;;;19.90;97.20;;;;;;5079435;28;20094;-72
2023/07/07 09:36:07;;;;;;;1.63;0.98;;;19.90;97.70;;;;;;5066930;28;20437;-71
2023/07/07 09:38:43;;;;;;;2.95;1.10;;;20.00;97.80;;;;;;5076288;28;20071;-74
2023/07/07 09:41:30;;;;;;;3.25;1.13;;;20.10;97.50;;;;;;5070251;28;20047;-75
2023/07/07 09:44:12;;;;;;;2.78;0.88;;;20.10;97.00;;;;;;5073568;28;20056;-74
2023/07/07 09:46:54;;;;;;;2.85;1.52;;;20.10;97.00;;;;;;5084495;28;20486;-75
2023/07/07 09:49:34;;;;;;;2.17;1.02;;;20.10;96.60;;;;;;5072946;28;20446;-71
2023/07/07 09:52:25;;;;;;;5.28;1.30;;;20.10;96.80;;;;;;5072821;28;20029;-71
2023/07/07 09:54:52;;;;;;;3.40;1.33;;;20.10;96.10;;;;;;5067857;28;20094;-72
2023/07/07 09:57:27;;;;;;;1.77;0.90;;;20.10;96.90;;;;;;5069089;28;20158;-72
2023/07/07 09:59:55;;;;;;;3.10;1.00;;;20.20;96.80;;;;;;5085596;28;20120;-72
2023/07/07 10:02:23;;;;;;;2.97;1.00;;;20.20;96.70;;;;;;5082862;28;20039;-72
2023/07/07 10:05:01;;;;;;;3.75;1.20;;;20.30;96.30;;;;;;5081708;28;20039;-72
2023/07/07 10:07:38;;;;;;;2.42;1.00;;;20.30;94.30;;;;;;5052658;28;20088;-72
2023/07/07 10:10:06;;;;;;;3.60;1.38;;;20.30;94.70;;;;;;5079010;28;20039;-72
2023/07/07 10:12:32;;;;;;;2.50;1.02;;;20.40;95.30;;;;;;5071813;28;20044;-72
2023/07/07 10:14:58;;;;;;;2.55;0.82;;;20.40;95.10;;;;;;5080882;28;20398;-72
2023/07/07 10:17:58;;;;;;;2.70;1.23;;;20.40;94.80;;;;;;5058441;28;20088;-71
2023/07/07 10:20:23;;;;;;;2.05;0.77;;;20.40;93.20;;;;;;5076589;28;20367;-71
2023/07/07 10:22:49;;;;;;;2.63;1.27;;;20.50;93.70;;;;;;5072416;28;20093;-72
2023/07/07 10:25:16;;;;;;;3.10;1.00;;;20.50;93.20;;;;;;5054079;28;20043;-72
2023/07/07 10:27:52;;;;;;;4.43;1.30;;;20.50;93.00;;;;;;5085232;28;20501;-72
2023/07/07 10:30:18;;;;;;;4.45;0.90;;;20.50;92.50;;;;;;5079780;28;20033;-72
2023/07/07 10:32:44;;;;;;;1.98;0.93;;;20.50;92.50;;;;;;5084432;28;20081;-72
2023/07/07 10:35:17;;;;;;;3.95;1.35;;;20.50;92.40;;;;;;5074774;28;20076;-71
2023/07/07 10:37:44;;;;;;;2.33;0.98;;;20.60;91.80;;;;;;5065224;28;20744;-72
2023/07/07 10:40:15;;;;;;;2.22;0.80;;;20.60;92.20;;;;;;5062529;28;20032;-72
2023/07/07 10:42:40;;;;;;;4.68;1.10;;;20.60;91.70;;;;;;5048578;28;20040;-71
2023/07/07 10:45:07;;;;;;;4.78;1.05;;;20.60;91.20;;;;;;5077234;28;20040;-71
2023/07/07 10:47:36;;;;;;;3.30;1.10;;;20.70;90.80;;;;;;5083974;28;20497;-72
2023/07/07 10:50:04;;;;;;;3.83;1.00;;;20.70;90.80;;;;;;5080298;28;20075;-72
2023/07/07 10:53:18;;;;;;;3.20;1.15;;;20.70;90.90;;;;;;5067885;28;20481;-71
2023/07/07 10:56:05;;;;;;;2.65;1.20;;;20.70;90.20;;;;;;5074012;28;20564;-72
2023/07/07 10:58:50;;;;;;;2.58;1.02;;;20.70;87.80;;;;;;5074212;28;20044;-71
2023/07/07 11:01:43;;;;;;;2.55;1.10;;;20.80;88.90;;;;;;5083474;28;20043;-71
2023/07/07 11:04:27;;;;;;;2.65;1.10;;;20.70;88.60;;;;;;5067852;28;20052;-71
2023/07/07 11:07:15;;;;;;;3.88;1.10;;;20.80;90.40;;;;;;5066134;28;20032;-71
2023/07/07 11:09:56;;;;;;;2.67;1.30;;;20.80;89.10;;;;;;5063239;28;20071;-71
2023/07/07 11:12:40;;;;;;;2.90;1.30;;;20.90;88.90;;;;;;5048744;28;20048;-71
2023/07/07 11:15:27;;;;;;;2.92;1.10;;;20.80;89.70;;;;;;5069421;28;20342;-71
2023/07/07 11:18:01;;;;;;;2.58;1.13;;;20.90;90.00;;;;;;5060203;28;20041;-71
2023/07/07 11:21:01;;;;;;;3.80;1.00;;;20.90;88.90;;;;;;5048529;28;20033;-71
2023/07/07 11:24:06;;;;;;;2.47;0.93;;;21.00;87.70;;;;;;5062639;28;20076;-71
2023/07/07 11:26:46;;;;;;;3.55;1.30;;;21.10;88.10;;;;;;5057851;28;20055;-71
2023/07/07 11:29:22;;;;;;;3.03;1.02;;;21.10;89.00;;;;;;5031605;28;20069;-71
2023/07/07 11:32:11;;;;;;;3.38;1.20;;;21.20;87.50;;;;;;5047298;28;20509;-71
2023/07/07 11:34:45;;;;;;;4.15;1.30;;;21.30;85.40;;;;;;5063467;28;20044;-72
2023/07/07 11:37:34;;;;;;;2.55;1.00;;;21.30;86.70;;;;;;5061913;28;20079;-71
2023/07/07 11:40:28;;;;;;;2.72;0.90;;;21.30;85.90;;;;;;5062945;28;20040;-72
2023/07/07 11:43:24;;;;;;;3.45;1.15;;;21.30;86.20;;;;;;5077682;28;20127;-72
2023/07/07 11:46:01;;;;;;;;;;;21.40;84.20;;;;;;5079547;28;20516;-71
2023/07/07 11:48:54;;;;;;;2.42;0.80;;;21.40;77.30;;;;;;5077379;28;20396;-72
2023/07/07 11:51:41;;;;;;;3.13;1.00;;;21.40;83.90;;;;;;5076369;28;20089;-72
2023/07/07 11:54:22;;;;;;;2.45;0.95;;;21.40;82.80;;;;;;5054170;28;20036;-72
2023/07/07 11:57:07;;;;;;;1.52;0.73;;;21.40;83.30;;;;;;5074663;28;20036;-72
2023/07/07 11:59:39;;;;;;;;;;;21.40;80.40;;;;;;5075531;28;20048;-71
2023/07/07 12:02:16;;;;;;;2.70;1.20;;;21.50;74.30;;;;;;5056595;28;19990;-72
2023/07/07 12:04:44;;;;;;;2.00;0.93;;;21.50;81.20;;;;;;5046459;28;20106;-71
2023/07/07 12:07:15;;;;;;;3.05;1.00;;;21.50;81.40;;;;;;5079237;28;20055;-71
2023/07/07 12:09:54;;;;;;;2.47;1.20;;;21.50;81.00;;;;;;5077385;28;20028;-72
2023/07/07 12:12:38;;;;;;;3.28;1.30;;;21.50;80.90;;;;;;5079179;28;20483;-71
2023/07/07 12:15:07;;;;;;;4.70;1.13;;;21.60;78.50;;;;;;5077655;28;20043;-75
2023/07/07 12:17:37;;;;;;;2.22;1.10;;;21.60;79.80;;;;;;5073064;28;20946;-71
2023/07/07 12:20:11;;;;;;;2.22;1.02;;;21.60;80.80;;;;;;5074677;28;20111;-72
2023/07/07 12:22:40;;;;;;;2.30;1.17;;;21.60;81.30;;;;;;5061448;28;20036;-71
2023/07/07 12:25:21;;;;;;;2.35;1.00;;;21.60;80.80;;;;;;5061154;28;20559;-72
2023/07/07 12:27:51;;;;;;;3.03;1.38;;;21.60;79.70;;;;;;5063338;28;20045;-72
2023/07/07 12:30:27;;;;;;;2.42;0.90;;;21.70;80.50;;;;;;5072286;28;20043;-71
2023/07/07 12:32:54;;;;;;;2.60;0.98;;;21.70;79.90;;;;;;5080026;28;20090;-72
2023/07/07 12:35:46;;;;;;;2.28;0.90;;;21.70;78.90;;;;;;5072605;28;20037;-71
2023/07/07 12:38:20;;;;;;;3.72;1.10;;;21.70;75.70;;;;;;5081116;28;20036;-71
2023/07/07 12:40:46;;;;;;;5.37;1.20;;;21.70;77.70;;;;;;5067665;28;20385;-72
2023/07/07 12:43:36;;;;;;;2.67;1.00;;;21.80;77.60;;;;;;5071558;28;20040;-72
2023/07/07 12:46:03;;;;;;;2.88;1.30;;;21.80;76.60;;;;;;5075683;28;20036;-72
2023/07/07 12:48:29;;;;;;;4.07;1.20;;;21.90;77.10;;;;;;5073382;28;20068;-70
2023/07/07 12:51:07;;;;;;;2.97;1.15;;;21.80;76.20;;;;;;5076953;28;20771;-71
2023/07/07 12:53:42;;;;;;;3.55;1.10;;;21.90;72.80;;;;;;5073270;28;20703;-72
2023/07/07 12:56:08;;;;;;;1.88;0.90;;;21.90;74.00;;;;;;5068201;28;20573;-71
2023/07/07 12:58:37;;;;;;;4.03;1.08;;;21.90;74.50;;;;;;5077901;28;20060;-71
2023/07/07 13:01:15;;;;;;;2.08;1.10;;;21.90;73.70;;;;;;5067804;28;20485;-71
2023/07/07 13:04:01;;;;;;;3.15;1.23;;;21.90;73.00;;;;;;5056464;28;20556;-71
2023/07/07 13:06:33;;;;;;;2.45;1.00;;;21.90;72.00;;;;;;5061022;28;20161;-72